createdAt,value
2018-03-06T00:01:50.084Z,99.90
2018-03-06T00:04:19.335Z,99.90
2018-03-06T00:06:47.955Z,99.90
2018-03-06T00:09:16.193Z,99.90
2018-03-06T00:11:44.477Z,99.90
2018-03-06T00:14:14.207Z,99.90
2018-03-06T00:16:42.458Z,99.90
2018-03-06T00:19:11.196Z,99.90
2018-03-06T00:24:09.651Z,99.90
2018-03-06T00:26:39.000Z,99.90
2018-03-06T00:29:07.236Z,99.90
2018-03-06T00:31:35.467Z,99.90
2018-03-06T00:34:04.774Z,99.90
2018-03-06T00:36:34.518Z,99.90
2018-03-06T00:39:03.522Z,99.90
2018-03-06T00:44:03.676Z,99.90
2018-03-06T00:46:31.914Z,99.90
2018-03-06T00:49:01.060Z,99.90
2018-03-06T00:51:30.061Z,99.90
2018-03-06T00:53:58.296Z,99.90
2018-03-06T00:56:29.244Z,99.90
2018-03-06T00:58:58.248Z,99.90
2018-03-06T01:01:26.486Z,99.90
2018-03-06T01:03:56.568Z,99.90
2018-03-06T01:06:24.796Z,99.90
2018-03-06T01:08:53.420Z,99.90
2018-03-06T01:11:23.018Z,99.90
2018-03-06T01:13:51.249Z,99.90
2018-03-06T01:16:20.253Z,99.90
2018-03-06T01:18:49.541Z,99.90
2018-03-06T01:21:17.776Z,99.90
2018-03-06T01:23:47.508Z,99.90
2018-03-06T01:26:15.950Z,99.90
2018-03-06T01:28:44.484Z,99.90
2018-03-06T01:31:12.716Z,99.90
2018-03-06T01:33:41.097Z,99.90
2018-03-06T01:36:10.092Z,99.90
2018-03-06T01:38:38.323Z,99.90
2018-03-06T01:41:07.560Z,99.90
2018-03-06T01:43:36.199Z,99.90
2018-03-06T01:46:04.819Z,99.90
2018-03-06T01:48:34.046Z,99.90
2018-03-06T01:51:03.412Z,99.90
2018-03-06T01:53:32.779Z,99.90
2018-03-06T01:56:04.460Z,99.90
2018-03-06T01:58:36.527Z,99.90
2018-03-06T02:01:05.380Z,99.90
2018-03-06T02:03:34.390Z,99.90
2018-03-06T02:06:03.398Z,99.90
2018-03-06T02:08:32.744Z,99.90
2018-03-06T02:16:00.844Z,99.90
2018-03-06T02:18:29.836Z,99.90
2018-03-06T02:20:58.841Z,99.90
2018-03-06T02:23:28.509Z,99.90
2018-03-06T02:25:56.740Z,99.90
2018-03-06T02:28:24.963Z,99.90
2018-03-06T02:30:53.352Z,99.90
2018-03-06T02:33:21.586Z,99.90
2018-03-06T02:35:49.826Z,99.90
2018-03-06T02:38:19.209Z,99.90
2018-03-06T02:40:47.436Z,99.90
2018-03-06T02:45:45.675Z,99.90
2018-03-06T02:48:13.908Z,99.90
2018-03-06T02:50:42.137Z,99.90
2018-03-06T02:53:10.684Z,99.90
2018-03-06T02:55:39.304Z,99.90
2018-03-06T02:58:07.541Z,99.90
2018-03-06T03:00:36.652Z,99.90
2018-03-06T03:03:04.881Z,99.90
2018-03-06T03:05:33.108Z,99.90
2018-03-06T03:08:03.118Z,99.90
2018-03-06T03:13:00.804Z,99.90
2018-03-06T03:15:29.900Z,99.90
2018-03-06T03:17:58.520Z,99.90
2018-03-06T03:22:57.185Z,99.90
2018-03-06T03:25:25.425Z,99.90
2018-03-06T03:27:53.656Z,99.90
2018-03-06T03:30:22.298Z,99.90
2018-03-06T03:32:51.292Z,99.90
2018-03-06T03:35:20.305Z,99.90
2018-03-06T03:37:48.696Z,99.90
2018-03-06T03:47:45.860Z,99.90
2018-03-06T03:50:14.239Z,99.90
2018-03-06T03:52:42.868Z,99.90
2018-03-06T03:55:11.097Z,99.90
2018-03-06T03:57:43.740Z,99.90
2018-03-06T04:00:12.364Z,99.90
2018-03-06T04:02:47.281Z,99.90
2018-03-06T04:05:15.508Z,99.90
2018-03-06T04:07:44.514Z,99.90
2018-03-06T04:10:13.376Z,99.90
2018-03-06T04:12:41.604Z,99.90
2018-03-06T04:15:09.842Z,99.90
2018-03-06T04:17:39.565Z,99.90
2018-03-06T04:20:07.792Z,99.90
2018-03-06T04:22:36.416Z,99.90
2018-03-06T04:25:06.528Z,99.90
2018-03-06T04:27:34.753Z,99.90
2018-03-06T04:30:03.763Z,99.90
2018-03-06T04:32:36.656Z,99.90
2018-03-06T04:35:04.891Z,99.90
2018-03-06T04:37:33.116Z,99.90
2018-03-06T04:40:02.300Z,99.90
2018-03-06T04:42:30.533Z,99.90
2018-03-06T04:47:28.746Z,99.90
2018-03-06T04:49:57.740Z,99.90
2018-03-06T04:52:25.968Z,99.90
2018-03-06T04:54:55.060Z,99.90
2018-03-06T04:57:23.692Z,99.90
2018-03-06T05:02:22.048Z,99.90
2018-03-06T05:04:56.724Z,99.90
2018-03-06T05:07:26.533Z,99.90
2018-03-06T05:09:55.523Z,99.90
2018-03-06T05:12:23.752Z,99.90
2018-03-06T05:14:52.356Z,99.90
2018-03-06T05:19:50.044Z,99.90
2018-03-06T05:22:19.188Z,99.90
2018-03-06T05:24:47.415Z,99.90
2018-03-06T05:27:16.419Z,99.90
2018-03-06T05:29:45.561Z,99.90
2018-03-06T05:32:14.556Z,99.90
2018-03-06T05:34:43.553Z,99.90
2018-03-06T05:39:45.832Z,99.90
2018-03-06T05:42:14.833Z,99.90
2018-03-06T05:44:43.828Z,99.90
2018-03-06T05:47:12.812Z,99.90
2018-03-06T05:49:42.180Z,99.90
2018-03-06T05:52:10.411Z,99.90
2018-03-06T05:54:41.070Z,99.90
2018-03-06T05:57:09.692Z,99.90
2018-03-06T05:59:37.929Z,99.90
2018-03-06T06:02:06.495Z,99.90
2018-03-06T06:04:34.732Z,99.90
2018-03-06T06:07:04.452Z,99.90
2018-03-06T06:12:06.548Z,99.90
2018-03-06T06:14:35.552Z,99.90
2018-03-06T06:17:04.549Z,99.90
2018-03-06T06:22:03.428Z,99.90
2018-03-06T06:24:31.669Z,99.90
2018-03-06T06:27:00.032Z,99.90
2018-03-06T06:29:28.263Z,99.90
2018-03-06T06:31:57.262Z,99.90
2018-03-06T06:34:26.028Z,99.90
2018-03-06T06:36:54.260Z,99.90
2018-03-06T06:39:22.498Z,99.90
2018-03-06T06:41:52.391Z,99.90
2018-03-06T06:44:20.621Z,99.90
2018-03-06T06:46:49.999Z,99.90
2018-03-06T06:49:18.900Z,99.90
2018-03-06T06:51:47.133Z,99.90
2018-03-06T06:54:16.876Z,99.90
2018-03-06T06:56:45.249Z,99.90
2018-03-06T06:59:13.500Z,99.90
2018-03-06T07:01:42.506Z,99.90
2018-03-06T07:04:12.372Z,99.90
2018-03-06T07:06:40.603Z,99.90
2018-03-06T07:09:13.536Z,99.90
2018-03-06T07:11:41.774Z,99.90
2018-03-06T07:14:11.152Z,99.90
2018-03-06T07:16:39.716Z,99.90
2018-03-06T07:21:39.535Z,99.90
2018-03-06T07:24:08.204Z,99.90
2018-03-06T07:26:37.571Z,99.90
2018-03-06T07:29:05.796Z,99.90
2018-03-06T07:31:34.168Z,99.90
2018-03-06T07:34:02.409Z,99.90
2018-03-06T07:36:30.646Z,99.90
2018-03-06T07:38:59.876Z,99.90
2018-03-06T07:41:28.108Z,99.90
2018-03-06T07:43:56.350Z,99.90
2018-03-06T07:46:25.689Z,99.90
2018-03-06T07:48:54.756Z,99.90
2018-03-06T07:51:22.924Z,99.90
2018-03-06T07:53:51.624Z,99.90
2018-03-06T07:56:19.864Z,99.90
2018-03-06T07:58:48.096Z,99.90
2018-03-06T08:01:16.484Z,99.90
2018-03-06T08:03:45.125Z,99.90
2018-03-06T08:06:14.124Z,99.90
2018-03-06T08:08:44.521Z,99.90
2018-03-06T08:11:12.958Z,99.90
2018-03-06T08:13:41.591Z,99.90
2018-03-06T08:16:09.978Z,99.90
2018-03-06T08:18:38.213Z,99.90
2018-03-06T08:21:06.850Z,99.90
2018-03-06T08:23:35.924Z,99.90
2018-03-06T08:26:04.177Z,99.90
2018-03-06T08:28:32.416Z,99.90
2018-03-06T08:31:00.978Z,99.90
2018-03-06T08:33:29.226Z,99.90
2018-03-06T08:35:57.447Z,99.90
2018-03-06T08:40:55.533Z,99.90
2018-03-06T08:43:23.773Z,99.90
2018-03-06T08:45:53.456Z,99.90
2018-03-06T08:48:22.460Z,99.90
2018-03-06T08:50:51.456Z,99.90
2018-03-06T08:53:20.004Z,99.80
2018-03-06T08:55:48.633Z,98.40
2018-03-06T08:58:17.633Z,97.10
2018-03-06T09:03:16.332Z,97.10
2018-03-06T09:05:44.959Z,97.20
2018-03-06T09:08:15.268Z,95.60
2018-03-06T09:10:44.273Z,95.20
2018-03-06T09:13:16.671Z,95.00
2018-03-06T09:15:44.908Z,95.30
2018-03-06T09:18:13.154Z,93.30
2018-03-06T09:20:42.024Z,93.00
2018-03-06T09:23:10.651Z,91.30
2018-03-06T09:25:38.880Z,88.40
2018-03-06T09:28:11.505Z,86.20
2018-03-06T09:30:40.133Z,82.60
2018-03-06T09:33:08.366Z,78.80
2018-03-06T09:38:13.304Z,79.00
2018-03-06T09:40:42.300Z,79.10
2018-03-06T09:43:10.535Z,77.30
2018-03-06T09:45:39.896Z,75.90
2018-03-06T09:48:08.524Z,77.20
2018-03-06T09:50:36.759Z,79.50
2018-03-06T09:53:06.264Z,81.50
2018-03-06T09:55:34.500Z,83.30
2018-03-06T09:58:02.732Z,86.80
2018-03-06T10:00:31.152Z,86.90
2018-03-06T10:02:59.420Z,87.20
2018-03-06T10:05:28.752Z,88.60
2018-03-06T10:07:58.055Z,87.70
2018-03-06T10:10:27.791Z,82.20
2018-03-06T10:15:26.384Z,79.70
2018-03-06T10:17:55.019Z,78.00
2018-03-06T10:20:23.248Z,72.70
2018-03-06T10:22:52.927Z,68.10
2018-03-06T10:25:22.300Z,65.30
2018-03-06T10:27:51.672Z,62.60
2018-03-06T10:30:20.920Z,59.80
2018-03-06T10:32:49.916Z,60.90
2018-03-06T10:35:18.152Z,59.50
2018-03-06T10:37:46.593Z,59.80
2018-03-06T10:40:14.827Z,61.40
2018-03-06T10:42:43.056Z,62.90
2018-03-06T10:45:11.448Z,65.30
2018-03-06T10:47:39.680Z,66.40
2018-03-06T10:50:08.680Z,67.20
2018-03-06T10:55:11.884Z,70.00
2018-03-06T10:57:41.610Z,72.30
2018-03-06T11:00:11.656Z,73.00
2018-03-06T11:02:42.831Z,73.60
2018-03-06T11:05:11.595Z,73.60
2018-03-06T11:07:39.828Z,73.90
2018-03-06T11:10:08.827Z,75.80
2018-03-06T11:15:06.668Z,74.70
2018-03-06T11:17:36.788Z,75.90
2018-03-06T11:20:05.445Z,76.30
2018-03-06T11:22:34.076Z,76.60
2018-03-06T11:25:02.310Z,77.80
2018-03-06T11:27:30.760Z,78.70
2018-03-06T11:29:59.760Z,80.90
2018-03-06T11:32:28.760Z,81.30
2018-03-06T11:34:57.408Z,81.70
2018-03-06T11:39:55.865Z,80.00
2018-03-06T11:42:24.388Z,79.40
2018-03-06T11:44:52.997Z,79.30
2018-03-06T11:47:21.220Z,79.60
2018-03-06T11:49:49.764Z,77.60
2018-03-06T11:52:17.946Z,77.50
2018-03-06T11:54:46.168Z,77.50
2018-03-06T11:57:16.228Z,75.00
2018-03-06T11:59:44.464Z,74.50
2018-03-06T12:02:12.696Z,73.40
2018-03-06T12:04:42.075Z,73.00
2018-03-06T12:07:16.361Z,71.20
2018-03-06T12:09:45.884Z,68.80
2018-03-06T12:12:14.121Z,68.20
2018-03-06T12:14:43.124Z,68.70
2018-03-06T12:17:12.788Z,67.00
2018-03-06T12:19:43.284Z,68.80
2018-03-06T12:22:11.739Z,67.70
2018-03-06T12:24:41.108Z,68.70
2018-03-06T12:27:09.340Z,68.90
2018-03-06T12:29:38.868Z,70.10
2018-03-06T12:32:07.096Z,70.30
2018-03-06T12:34:36.101Z,71.20
2018-03-06T12:37:06.333Z,70.30
2018-03-06T12:39:34.568Z,70.70
2018-03-06T12:42:03.569Z,69.60
2018-03-06T12:44:35.852Z,68.60
2018-03-06T12:47:04.089Z,67.50
2018-03-06T12:49:33.088Z,66.30
2018-03-06T12:52:02.327Z,65.10
2018-03-06T12:54:31.324Z,66.60
2018-03-06T12:57:01.068Z,68.30
2018-03-06T12:59:29.442Z,67.70
2018-03-06T13:01:57.676Z,65.80
2018-03-06T13:04:26.672Z,66.20
2018-03-06T13:06:55.052Z,65.40
2018-03-06T13:09:23.281Z,65.90
2018-03-06T13:11:51.565Z,65.40
2018-03-06T13:14:22.427Z,63.40
2018-03-06T13:16:51.057Z,61.10
2018-03-06T13:19:19.288Z,59.60
2018-03-06T13:21:48.711Z,59.20
2018-03-06T13:24:17.336Z,60.30
2018-03-06T13:26:46.331Z,61.10
2018-03-06T13:29:16.296Z,61.30
2018-03-06T13:31:44.923Z,61.70
2018-03-06T13:34:13.162Z,61.20
2018-03-06T13:36:42.312Z,59.90
2018-03-06T13:39:10.544Z,58.50
2018-03-06T13:41:38.781Z,58.90
2018-03-06T13:44:08.056Z,57.70
2018-03-06T13:46:36.289Z,57.60
2018-03-06T13:49:04.520Z,59.40
2018-03-06T13:51:32.897Z,59.60
2018-03-06T13:54:01.900Z,59.00
2018-03-06T13:56:30.136Z,58.60
2018-03-06T13:58:59.284Z,57.10
2018-03-06T14:01:31.692Z,57.80
2018-03-06T14:06:36.064Z,55.00
2018-03-06T14:09:04.291Z,54.90
2018-03-06T14:14:03.344Z,55.10
2018-03-06T14:16:31.974Z,58.10
2018-03-06T14:19:00.205Z,59.60
2018-03-06T14:21:28.576Z,60.20
2018-03-06T14:26:27.308Z,62.80
2018-03-06T14:28:56.864Z,65.40
2018-03-06T14:31:25.096Z,67.80
2018-03-06T14:33:53.328Z,69.40
2018-03-06T14:36:22.113Z,70.80
2018-03-06T14:38:50.736Z,71.60
2018-03-06T14:41:18.973Z,72.40
2018-03-06T14:43:51.649Z,73.50
2018-03-06T14:46:19.880Z,73.30
2018-03-06T14:48:49.256Z,73.80
2018-03-06T14:51:18.139Z,74.00
2018-03-06T14:56:15.839Z,75.20
2018-03-06T14:58:44.746Z,77.00
2018-03-06T15:03:42.378Z,76.70
2018-03-06T15:06:13.176Z,78.60
2018-03-06T15:08:42.176Z,79.10
2018-03-06T15:11:11.181Z,79.90
2018-03-06T15:13:40.696Z,80.10
2018-03-06T15:16:08.936Z,80.40
2018-03-06T15:18:37.162Z,80.70
2018-03-06T15:21:07.052Z,82.20
2018-03-06T15:23:35.288Z,82.40
2018-03-06T15:26:05.776Z,83.10
2018-03-06T15:28:34.657Z,82.90
2018-03-06T15:31:03.289Z,83.80
2018-03-06T15:33:31.520Z,84.70
2018-03-06T15:35:59.892Z,85.40
2018-03-06T15:38:28.133Z,84.80
2018-03-06T15:40:56.367Z,86.40
2018-03-06T15:43:26.200Z,86.50
2018-03-06T15:45:55.947Z,86.80
2018-03-06T15:50:56.848Z,87.40
2018-03-06T15:53:26.211Z,87.40
2018-03-06T15:55:54.445Z,88.20
2018-03-06T15:58:22.900Z,87.70
2018-03-06T16:00:52.640Z,88.90
2018-03-06T16:03:21.640Z,90.30
2018-03-06T16:08:24.187Z,90.00
2018-03-06T16:10:53.919Z,90.90
2018-03-06T16:13:23.664Z,90.80
2018-03-06T16:15:52.304Z,90.50
2018-03-06T16:20:49.996Z,91.30
2018-03-06T16:23:19.748Z,91.60
2018-03-06T16:25:47.981Z,91.90
2018-03-06T16:28:16.491Z,92.00
2018-03-06T16:30:46.311Z,92.50
2018-03-06T16:33:14.624Z,92.70
2018-03-06T16:35:42.864Z,93.00
2018-03-06T16:38:11.664Z,92.90
2018-03-06T16:40:40.293Z,93.00
2018-03-06T16:43:08.523Z,93.40
2018-03-06T16:45:38.175Z,93.70
2018-03-06T16:48:06.805Z,93.80
2018-03-06T16:50:35.041Z,93.80
2018-03-06T16:53:04.110Z,94.10
2018-03-06T16:55:33.111Z,94.20
2018-03-06T17:00:31.475Z,94.90
2018-03-06T17:03:01.212Z,94.80
2018-03-06T17:05:29.444Z,95.40
2018-03-06T17:07:59.669Z,95.80
2018-03-06T17:10:27.902Z,96.30
2018-03-06T17:12:56.136Z,96.50
2018-03-06T17:15:25.900Z,96.40
2018-03-06T17:17:55.267Z,96.60
2018-03-06T17:20:24.263Z,96.30
2018-03-06T17:22:52.770Z,96.90
2018-03-06T17:27:50.461Z,97.80
2018-03-06T17:30:20.846Z,98.20
2018-03-06T17:32:49.842Z,98.30
2018-03-06T17:37:47.708Z,98.30
2018-03-06T17:42:45.399Z,98.50
2018-03-06T17:45:14.797Z,98.60
2018-03-06T17:47:43.428Z,98.90
2018-03-06T17:52:41.652Z,98.90
2018-03-06T17:55:09.885Z,98.80
2018-03-06T17:57:38.116Z,99.20
2018-03-06T18:00:07.340Z,99.30
2018-03-06T18:02:35.968Z,99.40
2018-03-06T18:05:04.204Z,99.50
2018-03-06T18:07:32.760Z,99.70
2018-03-06T18:10:02.504Z,99.80
2018-03-06T18:12:30.732Z,99.90
2018-03-06T18:14:59.217Z,99.90
2018-03-06T18:19:56.909Z,99.90
2018-03-06T18:24:59.624Z,99.90
2018-03-06T18:27:27.858Z,99.90
2018-03-06T18:29:56.096Z,99.90
2018-03-06T18:32:24.781Z,99.90
2018-03-06T18:34:53.416Z,99.90
2018-03-06T18:37:21.688Z,99.90
2018-03-06T18:39:50.476Z,99.90
2018-03-06T18:42:19.843Z,99.90
2018-03-06T18:44:48.093Z,99.90
2018-03-06T18:47:17.645Z,99.90
2018-03-06T18:49:58.572Z,99.90
2018-03-06T18:52:26.952Z,99.90
2018-03-06T18:54:56.697Z,99.90
2018-03-06T18:57:26.435Z,99.90
2018-03-06T19:03:09.508Z,99.90
2018-03-06T19:08:23.377Z,99.90
2018-03-06T19:10:51.608Z,99.90
2018-03-06T19:13:19.849Z,99.90
2018-03-06T19:15:48.219Z,99.90
2018-03-06T19:18:16.456Z,99.90
2018-03-06T19:20:45.456Z,99.90
2018-03-06T19:25:44.640Z,99.90
2018-03-06T19:28:12.873Z,99.90
2018-03-06T19:30:42.121Z,99.90
2018-03-06T19:33:10.648Z,99.90
2018-03-06T19:35:38.876Z,99.90
2018-03-06T19:38:07.256Z,99.90
2018-03-06T19:40:35.488Z,99.90
2018-03-06T19:43:04.492Z,99.90
2018-03-06T19:45:33.036Z,99.90
2018-03-06T19:48:01.263Z,99.90
2018-03-06T19:50:29.499Z,99.90
2018-03-06T19:52:59.739Z,99.90
2018-03-06T19:55:27.979Z,99.90
2018-03-06T19:57:56.213Z,99.90
2018-03-06T20:00:24.760Z,99.90
2018-03-06T20:02:53.390Z,99.90
2018-03-06T20:07:52.132Z,99.90
2018-03-06T20:10:21.525Z,99.90
2018-03-06T20:12:49.749Z,99.90
2018-03-06T20:15:19.340Z,99.90
2018-03-06T20:17:47.969Z,99.90
2018-03-06T20:20:16.209Z,99.90
2018-03-06T20:22:45.448Z,99.90
2018-03-06T20:25:20.212Z,99.90
2018-03-06T20:27:50.432Z,99.90
2018-03-06T20:30:25.140Z,99.90
2018-03-06T20:33:02.413Z,99.90
2018-03-06T20:35:34.184Z,99.90
2018-03-06T20:38:03.336Z,99.90
2018-03-06T20:40:32.764Z,99.90
2018-03-06T20:43:01.773Z,99.90
2018-03-06T20:50:46.059Z,99.90
2018-03-06T20:53:19.868Z,99.90
2018-03-06T20:55:49.117Z,99.90
2018-03-06T20:58:17.744Z,99.90
2018-03-06T21:00:45.980Z,99.90
2018-03-06T21:03:16.382Z,99.90
2018-03-06T21:08:14.085Z,99.90
2018-03-06T21:10:42.461Z,99.90
2018-03-06T21:13:10.700Z,99.90
2018-03-06T21:15:38.936Z,99.90
2018-03-06T21:18:08.040Z,99.90
2018-03-06T21:20:36.664Z,99.90
2018-03-06T21:23:05.664Z,99.90
2018-03-06T21:25:34.682Z,99.90
2018-03-06T21:28:02.920Z,99.90
2018-03-06T21:30:31.548Z,99.90
2018-03-06T21:33:00.749Z,99.90
2018-03-06T21:35:29.387Z,99.90
2018-03-06T21:37:58.636Z,99.90
2018-03-06T21:40:27.288Z,99.90
2018-03-06T21:42:55.924Z,99.90
2018-03-06T21:45:24.555Z,99.90
2018-03-06T21:47:54.813Z,99.90
2018-03-06T21:50:23.045Z,99.90
2018-03-06T21:52:51.292Z,99.90
2018-03-06T21:55:19.673Z,99.90
2018-03-06T21:57:48.308Z,99.90
2018-03-06T22:00:16.940Z,99.90
2018-03-06T22:02:45.615Z,99.90
2018-03-06T22:05:13.864Z,99.90
2018-03-06T22:07:42.868Z,99.90
2018-03-06T22:10:11.344Z,99.90
2018-03-06T22:12:39.588Z,99.90
2018-03-06T22:15:07.835Z,99.90
2018-03-06T22:17:38.809Z,99.90
2018-03-06T22:20:07.449Z,99.90
2018-03-06T22:22:35.694Z,99.90
2018-03-06T22:25:04.438Z,99.90
2018-03-06T22:27:32.670Z,99.90
2018-03-06T22:30:00.901Z,99.90
2018-03-06T22:32:29.952Z,99.90
2018-03-06T22:34:58.193Z,99.90
2018-03-06T22:37:27.196Z,99.90
2018-03-06T22:39:56.289Z,99.90
2018-03-06T22:42:25.301Z,99.90
2018-03-06T22:44:54.681Z,99.90
2018-03-06T22:47:23.486Z,99.90
2018-03-06T22:52:23.080Z,99.90
2018-03-06T22:54:52.177Z,99.90
2018-03-06T22:57:21.185Z,99.90
2018-03-06T22:59:49.428Z,99.90
2018-03-06T23:02:18.363Z,99.90
2018-03-06T23:04:46.600Z,99.90
2018-03-06T23:07:15.608Z,99.90
2018-03-06T23:09:43.993Z,99.90
2018-03-06T23:12:13.019Z,99.90
2018-03-06T23:14:42.031Z,99.90
2018-03-06T23:17:11.681Z,99.90
2018-03-06T23:19:39.930Z,99.90
2018-03-06T23:22:08.179Z,99.90
2018-03-06T23:24:37.532Z,99.90
2018-03-06T23:27:06.543Z,99.90
2018-03-06T23:29:34.791Z,99.90
2018-03-06T23:32:04.156Z,99.90
2018-03-06T23:34:32.808Z,99.90
2018-03-06T23:37:01.047Z,99.90
2018-03-06T23:39:30.461Z,99.90
2018-03-06T23:42:01.605Z,99.90
2018-03-06T23:44:30.385Z,99.90
2018-03-06T23:46:59.381Z,99.90
2018-03-06T23:49:28.395Z,99.90
2018-03-06T23:51:56.741Z,99.90
2018-03-06T23:54:26.127Z,99.90
2018-03-06T23:56:54.360Z,99.90
2018-03-06T23:59:23.577Z,99.90
